createdAt,value
2016-08-02T00:00:25.756Z,969.37
2016-08-02T00:01:25.723Z,969.3
2016-08-02T00:02:25.694Z,969.32
2016-08-02T00:03:25.661Z,969.3
2016-08-02T00:04:25.630Z,969.31
2016-08-02T00:05:25.598Z,969.29
2016-08-02T00:06:25.566Z,969.31
2016-08-02T00:07:25.537Z,969.32
2016-08-02T00:08:25.503Z,969.32
2016-08-02T00:09:25.472Z,969.35
2016-08-02T00:10:25.439Z,969.33
2016-08-02T00:11:25.408Z,969.37
2016-08-02T00:12:25.390Z,969.39
2016-08-02T00:13:25.347Z,969.45
2016-08-02T00:14:25.313Z,969.42
2016-08-02T00:15:25.285Z,969.41
2016-08-02T00:16:25.253Z,969.41
2016-08-02T00:17:25.221Z,969.41
2016-08-02T00:18:25.189Z,969.43
2016-08-02T00:19:25.157Z,969.38
2016-08-02T00:20:25.126Z,969.36
2016-08-02T00:21:25.095Z,969.38
2016-08-02T00:22:25.062Z,969.35
2016-08-02T00:23:25.038Z,969.34
2016-08-02T00:24:25.002Z,969.33
2016-08-02T00:25:24.969Z,969.34
2016-08-02T00:26:24.937Z,969.34
2016-08-02T00:27:24.907Z,969.32
2016-08-02T00:28:24.876Z,969.31
2016-08-02T00:29:24.843Z,969.31
2016-08-02T00:30:24.812Z,969.29
2016-08-02T00:31:24.779Z,969.29
2016-08-02T00:32:24.754Z,969.27
2016-08-02T00:33:24.718Z,969.27
2016-08-02T00:34:24.684Z,969.28
2016-08-02T00:35:24.655Z,969.28
2016-08-02T00:36:24.628Z,969.25
2016-08-02T00:37:24.591Z,969.23
2016-08-02T00:38:24.559Z,969.25
2016-08-02T00:39:24.529Z,969.23
2016-08-02T00:40:24.497Z,969.27
2016-08-02T00:41:24.464Z,969.24
2016-08-02T00:42:24.435Z,969.24
2016-08-02T00:43:24.400Z,969.23
2016-08-02T00:44:24.370Z,969.19
2016-08-02T00:45:24.338Z,969.19
2016-08-02T00:46:24.306Z,969.17
2016-08-02T00:47:24.273Z,969.15
2016-08-02T00:48:24.241Z,969.13
2016-08-02T00:49:24.211Z,969.12
2016-08-02T00:50:24.178Z,969.15
2016-08-02T00:51:24.146Z,969.11
2016-08-02T00:52:24.115Z,969.05
2016-08-02T00:53:24.082Z,969.03
2016-08-02T00:54:24.051Z,969.02
2016-08-02T00:55:24.018Z,969.03
2016-08-02T00:56:23.988Z,969.05
2016-08-02T00:57:23.955Z,969.05
2016-08-02T00:58:23.922Z,969.02
2016-08-02T00:59:23.893Z,969.04
2016-08-02T01:00:23.860Z,969.01
2016-08-02T01:01:23.828Z,969
2016-08-02T01:02:23.794Z,968.98
2016-08-02T01:03:23.763Z,969.01
2016-08-02T01:04:23.732Z,968.99
2016-08-02T01:05:23.699Z,968.98
2016-08-02T01:06:23.667Z,969
2016-08-02T01:07:23.636Z,968.99
2016-08-02T01:08:23.604Z,968.99
2016-08-02T01:09:23.574Z,969.04
2016-08-02T01:10:23.539Z,969.03
2016-08-02T01:11:23.507Z,969.06
2016-08-02T01:12:23.475Z,969.03
2016-08-02T01:13:23.444Z,968.99
2016-08-02T01:14:23.413Z,969.03
2016-08-02T01:15:23.380Z,968.99
2016-08-02T01:16:23.348Z,968.93
2016-08-02T01:17:23.316Z,968.95
2016-08-02T01:18:23.285Z,968.93
2016-08-02T01:19:23.251Z,968.94
2016-08-02T01:20:23.220Z,968.89
2016-08-02T01:21:23.195Z,968.92
2016-08-02T01:22:23.156Z,968.89
2016-08-02T01:23:23.125Z,968.88
2016-08-02T01:24:23.092Z,968.89
2016-08-02T01:25:23.062Z,968.84
2016-08-02T01:26:23.029Z,968.84
2016-08-02T01:27:22.998Z,968.82
2016-08-02T01:28:22.967Z,968.79
2016-08-02T01:29:22.936Z,968.81
2016-08-02T01:30:22.903Z,968.75
2016-08-02T01:31:22.870Z,968.72
2016-08-02T01:32:22.839Z,968.77
2016-08-02T01:33:22.810Z,968.76
2016-08-02T01:34:22.775Z,968.75
2016-08-02T01:35:22.742Z,968.75
2016-08-02T01:36:22.711Z,968.75
2016-08-02T01:37:22.681Z,968.77
2016-08-02T01:38:22.647Z,968.73
2016-08-02T01:39:22.615Z,968.78
2016-08-02T01:40:22.586Z,968.8
2016-08-02T01:41:22.552Z,968.8
2016-08-02T01:42:22.519Z,968.78
2016-08-02T01:43:22.488Z,968.79
2016-08-02T01:44:22.458Z,968.81
2016-08-02T01:45:22.424Z,968.83
2016-08-02T01:46:22.394Z,968.8
2016-08-02T01:47:22.360Z,968.78
2016-08-02T01:48:22.330Z,968.76
2016-08-02T01:49:22.296Z,968.78
2016-08-02T01:50:22.264Z,968.8
2016-08-02T01:51:22.234Z,968.76
2016-08-02T01:52:22.202Z,968.74
2016-08-02T01:53:22.171Z,968.8
2016-08-02T01:54:22.140Z,968.77
2016-08-02T01:55:22.108Z,968.79
2016-08-02T01:56:22.075Z,968.8
2016-08-02T01:57:22.043Z,968.81
2016-08-02T01:58:22.013Z,968.77
2016-08-02T01:59:21.982Z,968.78
2016-08-02T02:00:21.947Z,968.81
2016-08-02T02:01:21.916Z,968.79
2016-08-02T02:02:21.884Z,968.82
2016-08-02T02:03:21.854Z,968.83
2016-08-02T02:04:21.822Z,968.84
2016-08-02T02:05:21.790Z,968.83
2016-08-02T02:06:21.760Z,968.83
2016-08-02T02:07:21.727Z,968.88
2016-08-02T02:08:21.700Z,968.86
2016-08-02T02:09:21.664Z,968.82
2016-08-02T02:10:21.633Z,968.84
2016-08-02T02:11:21.601Z,968.83
2016-08-02T02:12:21.581Z,968.83
2016-08-02T02:13:21.537Z,968.85
2016-08-02T02:14:21.505Z,968.82
2016-08-02T02:15:21.474Z,968.84
2016-08-02T02:16:21.443Z,968.78
2016-08-02T02:17:21.413Z,968.85
2016-08-02T02:18:21.380Z,968.81
2016-08-02T02:19:21.346Z,968.79
2016-08-02T02:20:21.316Z,968.79
2016-08-02T02:21:21.286Z,968.81
2016-08-02T02:22:21.254Z,968.81
2016-08-02T02:23:21.221Z,968.79
2016-08-02T02:24:21.189Z,968.84
2016-08-02T02:25:21.158Z,968.83
2016-08-02T02:26:21.126Z,968.82
2016-08-02T02:27:21.095Z,968.78
2016-08-02T02:28:21.063Z,968.82
2016-08-02T02:29:21.031Z,968.83
2016-08-02T02:30:21.001Z,968.8
2016-08-02T02:31:20.967Z,968.84
2016-08-02T02:32:20.936Z,968.83
2016-08-02T02:33:20.904Z,968.8
2016-08-02T02:34:20.874Z,968.79
2016-08-02T02:35:20.841Z,968.74
2016-08-02T02:36:20.814Z,968.76
2016-08-02T02:37:20.777Z,968.76
2016-08-02T02:38:20.746Z,968.76
2016-08-02T02:39:20.714Z,968.74
2016-08-02T02:40:20.683Z,968.75
2016-08-02T02:41:20.653Z,968.74
2016-08-02T02:42:20.624Z,968.74
2016-08-02T02:43:20.589Z,968.71
2016-08-02T02:44:20.557Z,968.74
2016-08-02T02:45:20.526Z,968.72
2016-08-02T02:46:20.493Z,968.75
2016-08-02T02:47:20.461Z,968.75
2016-08-02T02:48:20.430Z,968.76
2016-08-02T02:49:20.397Z,968.83
2016-08-02T02:50:20.365Z,968.77
2016-08-02T02:51:20.334Z,968.78
2016-08-02T02:52:20.307Z,968.79
2016-08-02T02:53:20.270Z,968.77
2016-08-02T02:54:20.239Z,968.8
2016-08-02T02:55:20.204Z,968.76
2016-08-02T02:56:20.175Z,968.76
2016-08-02T02:57:20.141Z,968.75
2016-08-02T02:58:20.110Z,968.77
2016-08-02T02:59:20.082Z,968.78
2016-08-02T03:00:20.050Z,968.8
2016-08-02T03:01:20.015Z,968.78
2016-08-02T03:02:19.982Z,968.77
2016-08-02T03:03:19.950Z,968.85
2016-08-02T03:04:19.922Z,968.82
2016-08-02T03:05:19.886Z,968.83
2016-08-02T03:06:19.853Z,968.84
2016-08-02T03:07:19.821Z,968.79
2016-08-02T03:08:19.790Z,968.8
2016-08-02T03:09:19.757Z,968.78
2016-08-02T03:10:19.726Z,968.78
2016-08-02T03:11:19.693Z,968.8
2016-08-02T03:12:19.661Z,968.81
2016-08-02T03:13:19.629Z,968.83
2016-08-02T03:14:19.597Z,968.84
2016-08-02T03:15:19.564Z,968.85
2016-08-02T03:16:19.533Z,968.85
2016-08-02T03:17:19.500Z,968.85
2016-08-02T03:18:19.467Z,968.88
2016-08-02T03:19:19.436Z,968.91
2016-08-02T03:20:19.402Z,968.94
2016-08-02T03:21:19.369Z,968.92
2016-08-02T03:22:19.341Z,968.95
2016-08-02T03:23:19.306Z,968.94
2016-08-02T03:25:19.241Z,968.91
2016-08-02T03:26:19.210Z,968.92
2016-08-02T03:27:19.178Z,968.94
2016-08-02T03:28:19.145Z,968.89
2016-08-02T03:29:19.112Z,968.89
2016-08-02T03:30:19.080Z,968.89
2016-08-02T03:31:19.048Z,968.94
2016-08-02T03:32:19.016Z,968.91
2016-08-02T03:33:18.984Z,968.88
2016-08-02T03:34:18.953Z,968.84
2016-08-02T03:35:18.918Z,968.86
2016-08-02T03:36:18.886Z,968.83
2016-08-02T03:37:18.855Z,968.83
2016-08-02T03:38:18.823Z,968.84
2016-08-02T03:40:18.757Z,968.85
2016-08-02T03:41:18.726Z,968.82
2016-08-02T03:42:18.692Z,968.85
2016-08-02T03:43:18.662Z,968.84
2016-08-02T03:44:18.628Z,968.86
2016-08-02T03:45:18.604Z,968.85
2016-08-02T03:46:18.567Z,968.85
2016-08-02T03:47:18.532Z,968.9
2016-08-02T03:48:18.502Z,968.88
2016-08-02T03:49:18.469Z,968.91
2016-08-02T03:50:18.437Z,968.9
2016-08-02T03:51:18.403Z,968.89
2016-08-02T03:52:18.371Z,968.93
2016-08-02T03:53:18.340Z,968.95
2016-08-02T03:55:18.278Z,968.94
2016-08-02T03:56:18.244Z,968.94
2016-08-02T03:57:18.210Z,968.94
2016-08-02T03:58:18.190Z,968.96
2016-08-02T03:59:18.147Z,969
2016-08-02T04:00:18.115Z,968.98
2016-08-02T04:01:18.082Z,969
2016-08-02T04:02:18.050Z,969
2016-08-02T04:03:18.018Z,969.06
2016-08-02T04:04:17.984Z,969.08
2016-08-02T04:05:17.952Z,969.1
2016-08-02T04:06:17.920Z,969.06
2016-08-02T04:07:17.890Z,969.08
2016-08-02T04:08:17.856Z,969.08
2016-08-02T04:10:17.791Z,969.1
2016-08-02T04:11:17.761Z,969.11
2016-08-02T04:12:17.727Z,969.08
2016-08-02T04:13:17.696Z,969.04
2016-08-02T04:14:17.663Z,969.06
2016-08-02T04:15:17.633Z,969.09
2016-08-02T04:16:17.600Z,969.1
2016-08-02T04:17:17.568Z,969.09
2016-08-02T04:18:17.536Z,969.07
2016-08-02T04:19:17.505Z,969.11
2016-08-02T04:20:17.471Z,969.14
2016-08-02T04:21:17.441Z,969.11
2016-08-02T04:22:17.410Z,969.17
2016-08-02T04:23:17.376Z,969.2
2016-08-02T04:25:17.313Z,969.21
2016-08-02T04:26:17.279Z,969.23
2016-08-02T04:27:17.246Z,969.24
2016-08-02T04:28:17.216Z,969.23
2016-08-02T04:29:17.184Z,969.23
2016-08-02T04:30:17.151Z,969.21
2016-08-02T04:31:17.120Z,969.23
2016-08-02T04:32:17.090Z,969.24
2016-08-02T04:33:17.058Z,969.28
2016-08-02T04:34:17.026Z,969.23
2016-08-02T04:35:16.992Z,969.27
2016-08-02T04:36:16.961Z,969.28
2016-08-02T04:37:16.930Z,969.27
2016-08-02T04:38:16.896Z,969.29
2016-08-02T04:39:16.865Z,969.3
2016-08-02T04:40:16.834Z,969.27
2016-08-02T04:41:16.801Z,969.28
2016-08-02T04:42:16.768Z,969.28
2016-08-02T04:43:16.738Z,969.29
2016-08-02T04:44:16.704Z,969.26
2016-08-02T04:45:16.681Z,969.3
2016-08-02T04:46:16.642Z,969.29
2016-08-02T04:47:16.610Z,969.27
2016-08-02T04:48:16.582Z,969.32
2016-08-02T04:49:16.559Z,969.24
2016-08-02T04:50:16.514Z,969.24
2016-08-02T04:51:16.482Z,969.23
2016-08-02T04:52:16.454Z,969.24
2016-08-02T04:53:16.419Z,969.24
2016-08-02T04:54:16.386Z,969.27
2016-08-02T04:55:16.357Z,969.28
2016-08-02T04:56:16.323Z,969.29
2016-08-02T04:57:16.291Z,969.32
2016-08-02T04:58:16.261Z,969.33
2016-08-02T04:59:16.229Z,969.29
2016-08-02T05:00:16.196Z,969.29
2016-08-02T05:01:16.165Z,969.42
2016-08-02T05:02:16.135Z,969.38
2016-08-02T05:03:16.103Z,969.4
2016-08-02T05:04:16.068Z,969.43
2016-08-02T05:05:16.040Z,969.42
2016-08-02T05:06:16.006Z,969.44
2016-08-02T05:07:15.977Z,969.48
2016-08-02T05:08:15.943Z,969.45
2016-08-02T05:09:15.911Z,969.51
2016-08-02T05:10:15.880Z,969.49
2016-08-02T05:11:15.849Z,969.5
2016-08-02T05:12:15.816Z,969.5
2016-08-02T05:13:15.785Z,969.54
2016-08-02T05:14:15.753Z,969.51
2016-08-02T05:15:15.723Z,969.53
2016-08-02T05:16:15.690Z,969.52
2016-08-02T05:17:15.659Z,969.58
2016-08-02T05:18:15.629Z,969.51
2016-08-02T05:19:15.608Z,969.56
2016-08-02T05:20:15.564Z,969.61
2016-08-02T05:21:15.531Z,969.57
2016-08-02T05:22:15.500Z,969.58
2016-08-02T05:23:15.470Z,969.57
2016-08-02T05:24:15.438Z,969.57
2016-08-02T05:25:15.407Z,969.53
2016-08-02T05:26:15.374Z,969.6
2016-08-02T05:27:15.344Z,969.59
2016-08-02T05:28:15.315Z,969.61
2016-08-02T05:29:15.280Z,969.58
2016-08-02T05:30:15.250Z,969.58
2016-08-02T05:31:15.220Z,969.56
2016-08-02T05:32:15.186Z,969.64
2016-08-02T05:33:15.155Z,969.55
2016-08-02T05:34:15.124Z,969.6
2016-08-02T05:35:15.092Z,969.6
2016-08-02T05:36:15.065Z,969.58
2016-08-02T05:37:15.040Z,969.58
2016-08-02T05:38:14.998Z,969.63
2016-08-02T05:39:14.966Z,969.63
2016-08-02T05:40:14.934Z,969.69
2016-08-02T05:41:14.906Z,969.67
2016-08-02T05:42:14.873Z,969.7
2016-08-02T05:43:14.841Z,969.7
2016-08-02T05:44:14.810Z,969.66
2016-08-02T05:45:14.778Z,969.67
2016-08-02T05:46:14.748Z,969.64
2016-08-02T05:47:14.716Z,969.66
2016-08-02T05:48:14.691Z,969.64
2016-08-02T05:49:14.655Z,969.63
2016-08-02T05:50:14.623Z,969.68
2016-08-02T05:51:14.591Z,969.66
2016-08-02T05:52:14.560Z,969.66
2016-08-02T05:53:14.530Z,969.67
2016-08-02T05:54:14.498Z,969.7
2016-08-02T05:55:14.466Z,969.68
2016-08-02T05:56:14.435Z,969.7
2016-08-02T05:57:14.405Z,969.66
2016-08-02T05:58:14.373Z,969.73
2016-08-02T05:59:14.342Z,969.71
2016-08-02T06:00:14.309Z,969.72
2016-08-02T06:01:14.280Z,969.78
2016-08-02T06:02:14.248Z,969.77
2016-08-02T06:03:14.217Z,969.76
2016-08-02T06:04:14.185Z,969.76
2016-08-02T06:05:14.154Z,969.78
2016-08-02T06:06:14.123Z,969.8
2016-08-02T06:07:14.092Z,969.82
2016-08-02T06:08:14.063Z,969.82
2016-08-02T06:09:14.032Z,969.8
2016-08-02T06:10:14.001Z,969.85
2016-08-02T06:11:13.971Z,969.86
2016-08-02T06:12:13.937Z,969.8
2016-08-02T06:13:13.907Z,969.86
2016-08-02T06:14:13.877Z,969.83
2016-08-02T06:15:13.848Z,969.84
2016-08-02T06:16:13.820Z,969.84
2016-08-02T06:17:13.786Z,969.86
2016-08-02T06:18:13.754Z,969.92
2016-08-02T06:19:13.722Z,969.89
2016-08-02T06:20:13.695Z,969.85
2016-08-02T06:21:13.665Z,969.84
2016-08-02T06:22:13.638Z,969.84
2016-08-02T06:23:13.600Z,969.82
2016-08-02T06:24:13.570Z,969.9
2016-08-02T06:25:13.540Z,969.9
2016-08-02T06:26:13.514Z,969.9
2016-08-02T06:27:13.477Z,969.9
2016-08-02T06:28:13.448Z,969.9
2016-08-02T06:29:13.418Z,969.94
2016-08-02T06:30:13.385Z,969.94
2016-08-02T06:31:13.358Z,969.97
2016-08-02T06:32:13.327Z,969.95
2016-08-02T06:33:13.298Z,969.93
2016-08-02T06:34:13.266Z,969.95
2016-08-02T06:35:13.236Z,969.94
2016-08-02T06:36:13.206Z,969.94
2016-08-02T06:37:13.176Z,969.9
2016-08-02T06:38:13.144Z,969.89
2016-08-02T06:39:13.115Z,969.95
2016-08-02T06:40:13.085Z,969.89
2016-08-02T06:41:13.055Z,969.87
2016-08-02T06:42:13.022Z,969.87
2016-08-02T06:43:12.995Z,969.87
2016-08-02T06:44:12.967Z,969.87
2016-08-02T06:45:12.935Z,969.88
2016-08-02T06:46:12.909Z,969.89
2016-08-02T06:47:12.875Z,969.88
2016-08-02T06:48:12.853Z,969.85
2016-08-02T06:49:12.815Z,969.88
2016-08-02T06:50:12.786Z,969.84
2016-08-02T06:51:12.756Z,969.83
2016-08-02T06:52:12.725Z,969.8
2016-08-02T06:53:12.697Z,969.79
2016-08-02T06:54:12.666Z,969.8
2016-08-02T06:55:12.641Z,969.71
2016-08-02T06:56:12.606Z,969.76
2016-08-02T06:57:12.578Z,969.73
2016-08-02T06:58:12.549Z,969.71
2016-08-02T06:59:12.519Z,969.72
2016-08-02T07:00:12.488Z,969.75
2016-08-02T07:01:12.458Z,969.76
2016-08-02T07:02:12.433Z,969.79
2016-08-02T07:03:12.399Z,969.76
2016-08-02T07:04:12.370Z,969.77
2016-08-02T07:05:12.340Z,969.84
2016-08-02T07:06:12.312Z,969.85
2016-08-02T07:07:12.284Z,969.89
2016-08-02T07:08:12.252Z,969.91
2016-08-02T07:09:12.223Z,969.94
2016-08-02T07:10:12.195Z,969.91
2016-08-02T07:11:12.166Z,969.94
2016-08-02T07:12:12.137Z,969.96
2016-08-02T07:13:12.110Z,969.99
2016-08-02T07:14:12.082Z,970.04
2016-08-02T07:15:12.056Z,970.01
2016-08-02T07:16:12.028Z,970
2016-08-02T07:17:12.001Z,970.01
2016-08-02T07:18:11.972Z,969.97
2016-08-02T07:19:11.947Z,970.03
2016-08-02T07:20:11.921Z,969.99
2016-08-02T07:21:11.897Z,969.91
2016-08-02T07:22:11.867Z,969.92
2016-08-02T07:23:11.844Z,969.88
2016-08-02T07:24:11.818Z,969.9
2016-08-02T07:25:11.793Z,969.88
2016-08-02T07:26:11.768Z,969.91
2016-08-02T07:27:11.742Z,969.91
2016-08-02T07:28:11.717Z,969.89
2016-08-02T07:29:11.690Z,969.89
2016-08-02T07:30:11.665Z,969.84
2016-08-02T07:31:11.642Z,969.92
2016-08-02T07:32:11.618Z,969.91
2016-08-02T07:33:11.596Z,969.97
2016-08-02T07:34:11.569Z,969.98
2016-08-02T07:35:11.544Z,970.01
2016-08-02T07:36:11.521Z,970.01
2016-08-02T07:37:11.497Z,969.97
2016-08-02T07:38:11.473Z,970
2016-08-02T07:39:11.449Z,970.02
2016-08-02T07:40:11.426Z,970.01
2016-08-02T07:41:11.400Z,970.05
2016-08-02T07:42:11.378Z,970.05
2016-08-02T07:43:11.356Z,970.05
2016-08-02T07:44:11.333Z,970
2016-08-02T07:45:11.311Z,969.97
2016-08-02T07:46:11.285Z,969.96
2016-08-02T07:47:11.264Z,969.95
2016-08-02T07:48:11.242Z,969.96
2016-08-02T07:49:11.219Z,969.97
2016-08-02T07:50:11.199Z,969.96
2016-08-02T07:51:11.172Z,970
2016-08-02T07:52:11.158Z,969.94
2016-08-02T07:53:11.126Z,970.06
2016-08-02T07:54:11.104Z,969.98
2016-08-02T07:55:11.082Z,970.08
2016-08-02T07:56:11.060Z,970.04
2016-08-02T07:57:11.037Z,969.97
2016-08-02T07:58:11.016Z,970.03
2016-08-02T07:59:10.992Z,970
2016-08-02T08:00:10.973Z,970.07
2016-08-02T08:01:10.950Z,970.05
2016-08-02T08:02:10.927Z,970.02
2016-08-02T08:03:10.905Z,970
2016-08-02T08:04:10.883Z,970.09
2016-08-02T08:05:10.862Z,970.11
2016-08-02T08:06:10.840Z,970.14
2016-08-02T08:07:10.821Z,970.2
2016-08-02T08:08:10.798Z,970.25
2016-08-02T08:09:10.776Z,970.24
2016-08-02T08:10:10.756Z,970.15
2016-08-02T08:11:10.735Z,970.18
2016-08-02T08:12:10.714Z,970.22
2016-08-02T08:13:10.696Z,970.16
2016-08-02T08:14:10.674Z,970.2
2016-08-02T08:15:10.653Z,970.11
2016-08-02T08:16:10.633Z,970.11
2016-08-02T08:17:10.612Z,970.27
2016-08-02T08:18:10.592Z,970.23
2016-08-02T08:19:10.574Z,970.34
2016-08-02T08:20:10.552Z,970.17
2016-08-02T08:21:10.533Z,970.14
2016-08-02T08:22:10.512Z,970.26
2016-08-02T08:23:10.494Z,970.43
2016-08-02T08:24:10.472Z,970.07
2016-08-02T08:25:10.454Z,970.03
2016-08-02T08:26:10.434Z,970.04
2016-08-02T08:27:10.415Z,970.07
2016-08-02T08:28:10.393Z,970.05
2016-08-02T08:29:10.375Z,970.06
2016-08-02T08:30:10.354Z,970.02
2016-08-02T08:31:10.334Z,970
2016-08-02T08:32:10.317Z,969.95
2016-08-02T08:33:10.293Z,969.94
2016-08-02T08:34:10.273Z,970.03
2016-08-02T08:35:10.251Z,970.04
2016-08-02T08:36:10.231Z,970.01
2016-08-02T08:37:10.210Z,970.13
2016-08-02T08:38:10.186Z,970.16
2016-08-02T08:39:10.172Z,970.28
2016-08-02T08:40:10.146Z,970.64
2016-08-02T08:41:10.125Z,970.18
2016-08-02T08:42:10.104Z,970.2
2016-08-02T08:43:10.083Z,970.35
2016-08-02T08:44:10.062Z,970.37
2016-08-02T08:45:10.043Z,970.14
2016-08-02T08:46:10.018Z,970.09
2016-08-02T08:47:09.999Z,970.01
2016-08-02T08:48:09.981Z,970.32
2016-08-02T08:49:09.960Z,970.24
2016-08-02T08:50:09.938Z,970.5
2016-08-02T08:51:09.919Z,970.53
2016-08-02T08:52:09.900Z,970.43
2016-08-02T08:53:09.878Z,970.41
2016-08-02T08:54:09.859Z,970.2
2016-08-02T08:56:09.821Z,970.26
2016-08-02T08:57:09.803Z,970.2
2016-08-02T08:58:09.785Z,970.22
2016-08-02T08:59:09.764Z,970.14
2016-08-02T09:00:09.746Z,970.15
2016-08-02T09:01:09.727Z,970.29
2016-08-02T09:02:09.709Z,970.15
2016-08-02T09:03:09.691Z,970.09
2016-08-02T09:04:09.673Z,970.18
2016-08-02T09:05:09.656Z,970.03
2016-08-02T09:06:09.638Z,969.99
2016-08-02T09:07:09.620Z,969.91
2016-08-02T09:08:09.608Z,969.97
2016-08-02T09:09:09.584Z,970.1
2016-08-02T09:10:09.566Z,970.2
2016-08-02T09:11:09.548Z,970.24
2016-08-02T09:12:09.531Z,970.28
2016-08-02T09:13:09.512Z,970.33
2016-08-02T09:14:09.494Z,970.19
2016-08-02T09:15:09.476Z,970.15
2016-08-02T09:16:09.459Z,970.21
2016-08-02T09:17:09.439Z,970.14
2016-08-02T09:18:09.425Z,970.13
2016-08-02T09:19:09.406Z,970
2016-08-02T09:20:09.390Z,969.97
2016-08-02T09:21:09.374Z,969.95
2016-08-02T09:22:09.356Z,969.94
2016-08-02T09:23:09.342Z,969.9
2016-08-02T09:24:09.331Z,969.86
2016-08-02T09:25:09.308Z,969.99
2016-08-02T09:26:09.297Z,969.99
2016-08-02T09:27:09.279Z,970.04
2016-08-02T09:28:09.266Z,970.11
2016-08-02T09:29:09.249Z,970.12
2016-08-02T09:30:09.235Z,970.17
2016-08-02T09:31:09.221Z,970.24
2016-08-02T09:32:09.208Z,970.18
2016-08-02T09:33:09.191Z,970.3
2016-08-02T09:34:09.176Z,970.32
2016-08-02T09:35:09.165Z,970.21
2016-08-02T09:36:09.150Z,970.14
2016-08-02T09:37:09.139Z,970.14
2016-08-02T09:38:09.123Z,970.24
2016-08-02T09:39:09.112Z,970.32
2016-08-02T09:40:09.097Z,970.38
2016-08-02T09:41:09.083Z,970.37
2016-08-02T09:42:09.070Z,970.38
2016-08-02T09:43:09.056Z,970.37
2016-08-02T09:44:09.042Z,970.47
2016-08-02T09:45:09.028Z,970.35
2016-08-02T09:46:09.016Z,970.3
2016-08-02T09:47:09.003Z,969.97
2016-08-02T09:48:08.998Z,970.18
2016-08-02T09:49:08.972Z,970.52
2016-08-02T09:50:08.957Z,970.71
2016-08-02T09:51:08.943Z,970.78
2016-08-02T09:52:08.929Z,970.72
2016-08-02T09:53:08.915Z,970.71
2016-08-02T09:54:08.900Z,970.81
2016-08-02T09:55:08.885Z,970.59
2016-08-02T09:56:08.871Z,970.69
2016-08-02T09:57:08.861Z,970.58
2016-08-02T09:58:08.844Z,970.74
2016-08-02T09:59:08.828Z,970.77
2016-08-02T10:00:08.813Z,970.66
2016-08-02T10:01:08.800Z,970.88
2016-08-02T10:02:08.787Z,970.85
2016-08-02T10:03:08.771Z,970.75
2016-08-02T10:04:08.760Z,970.56
2016-08-02T10:05:08.746Z,970.22
2016-08-02T10:06:08.729Z,970.23
2016-08-02T10:07:08.717Z,970.29
2016-08-02T10:08:08.705Z,969.96
2016-08-02T10:09:08.689Z,969.84
2016-08-02T10:10:08.676Z,969.76
2016-08-02T10:11:08.664Z,969.97
2016-08-02T10:12:08.649Z,969.94
2016-08-02T10:13:08.635Z,970.17
2016-08-02T10:14:08.622Z,969.97
2016-08-02T10:15:08.606Z,969.93
2016-08-02T10:16:08.592Z,969.73
2016-08-02T10:17:08.576Z,969.82
2016-08-02T10:18:08.562Z,969.75
2016-08-02T10:19:08.548Z,969.89
2016-08-02T10:20:08.532Z,970.03
2016-08-02T10:21:08.517Z,970.22
2016-08-02T10:22:08.501Z,970.23
2016-08-02T10:23:08.486Z,970.57
2016-08-02T10:24:08.469Z,971.15
2016-08-02T10:25:08.459Z,971.35
2016-08-02T10:26:08.439Z,971.55
2016-08-02T10:27:08.423Z,971
2016-08-02T10:28:08.406Z,970.65
2016-08-02T10:29:08.392Z,970.77
2016-08-02T10:30:08.375Z,971.17
2016-08-02T10:31:08.361Z,971
2016-08-02T10:32:08.344Z,970.76
2016-08-02T10:33:08.328Z,970.78
2016-08-02T10:34:08.314Z,970.79
2016-08-02T10:35:08.297Z,969.74
2016-08-02T10:36:08.281Z,970.32
2016-08-02T10:37:08.266Z,970.67
2016-08-02T10:38:08.248Z,970.93
2016-08-02T10:39:08.234Z,970.79
2016-08-02T10:40:08.218Z,970.7
2016-08-02T10:41:08.202Z,970.5
2016-08-02T10:42:08.187Z,970.31
2016-08-02T10:43:08.168Z,970.48
2016-08-02T10:44:08.153Z,970.64
2016-08-02T10:45:08.137Z,970.5
2016-08-02T10:46:08.120Z,970.5
2016-08-02T10:47:08.106Z,970.62
2016-08-02T10:48:08.090Z,970.56
2016-08-02T10:49:08.074Z,970.51
2016-08-02T10:50:08.059Z,970.58
2016-08-02T10:51:08.044Z,970.56
2016-08-02T10:52:08.027Z,970.5
2016-08-02T10:53:08.014Z,970.68
2016-08-02T10:54:07.999Z,970.63
2016-08-02T10:55:07.984Z,970.63
2016-08-02T10:56:07.972Z,970.58
2016-08-02T10:57:07.955Z,970.53
2016-08-02T10:58:07.944Z,970.4
2016-08-02T10:59:07.928Z,970.19
2016-08-02T11:00:07.913Z,970.01
2016-08-02T11:01:07.898Z,969.99
2016-08-02T11:02:07.883Z,969.85
2016-08-02T11:03:07.871Z,969.77
2016-08-02T11:04:07.853Z,969.64
2016-08-02T11:05:07.842Z,969.55
2016-08-02T11:06:07.824Z,969.41
2016-08-02T11:07:07.810Z,969.42
2016-08-02T11:08:07.794Z,969.4
2016-08-02T11:09:07.778Z,969.3
2016-08-02T11:10:07.761Z,969.32
2016-08-02T11:11:07.745Z,969.35
2016-08-02T11:12:07.731Z,969.33
2016-08-02T11:13:07.715Z,969.37
2016-08-02T11:14:07.698Z,969.35
2016-08-02T11:15:07.680Z,969.33
2016-08-02T11:16:07.665Z,969.35
2016-08-02T11:17:07.645Z,969.42
2016-08-02T11:18:07.628Z,969.47
2016-08-02T11:19:07.609Z,969.47
2016-08-02T11:20:07.592Z,969.57
2016-08-02T11:21:07.576Z,969.58
2016-08-02T11:22:07.555Z,969.49
2016-08-02T11:23:07.538Z,969.31
2016-08-02T11:24:07.519Z,969.33
2016-08-02T11:25:07.501Z,969.37
2016-08-02T11:26:07.482Z,969.31
2016-08-02T11:27:07.465Z,969.32
2016-08-02T11:28:07.447Z,969.37
2016-08-02T11:29:07.427Z,969.3
2016-08-02T11:30:07.406Z,969.32
2016-08-02T11:31:07.387Z,969.27
2016-08-02T11:32:07.368Z,969.31
2016-08-02T11:33:07.353Z,969.3
2016-08-02T11:34:07.331Z,969.18
2016-08-02T11:35:07.315Z,969.12
2016-08-02T11:36:07.293Z,969.14
2016-08-02T11:37:07.274Z,969.14
2016-08-02T11:38:07.253Z,969.15
2016-08-02T11:39:07.232Z,969.15
2016-08-02T11:40:07.212Z,969.1
2016-08-02T11:41:07.191Z,969.11
2016-08-02T11:42:07.171Z,969.09
2016-08-02T11:43:07.152Z,969.13
2016-08-02T11:44:07.132Z,969.13
2016-08-02T11:45:07.110Z,969.08
2016-08-02T11:46:07.089Z,969.13
2016-08-02T11:47:07.069Z,969.19
2016-08-02T11:48:07.047Z,969.12
2016-08-02T11:49:07.025Z,969.13
2016-08-02T11:50:07.005Z,969.08
2016-08-02T11:51:06.983Z,969.16
2016-08-02T11:52:06.963Z,969.15
2016-08-02T11:53:06.940Z,969.16
2016-08-02T11:54:06.919Z,969.2
2016-08-02T11:55:06.898Z,969.17
2016-08-02T11:56:06.878Z,969.15
2016-08-02T11:57:06.854Z,969.17
2016-08-02T11:58:06.847Z,969.14
2016-08-02T11:59:06.812Z,969.09
2016-08-02T12:00:06.789Z,969.06
2016-08-02T12:01:06.767Z,969.02
2016-08-02T12:02:06.747Z,969.08
2016-08-02T12:03:06.722Z,969.01
2016-08-02T12:04:06.703Z,969.06
2016-08-02T12:05:06.682Z,969.06
2016-08-02T12:06:06.658Z,969.06
2016-08-02T12:07:06.639Z,969.02
2016-08-02T12:08:06.614Z,969
2016-08-02T12:09:06.591Z,968.98
2016-08-02T12:10:06.570Z,968.92
2016-08-02T12:11:06.547Z,968.89
2016-08-02T12:12:06.527Z,968.9
2016-08-02T12:13:06.502Z,968.93
2016-08-02T12:14:06.479Z,968.94
2016-08-02T12:15:06.458Z,968.9
2016-08-02T12:16:06.436Z,968.95
2016-08-02T12:17:06.414Z,968.93
2016-08-02T12:18:06.390Z,968.95
2016-08-02T12:19:06.367Z,968.95
2016-08-02T12:20:06.345Z,969.01
2016-08-02T12:21:06.323Z,968.96
2016-08-02T12:22:06.300Z,968.92
2016-08-02T12:23:06.277Z,968.91
2016-08-02T12:24:06.255Z,968.94
2016-08-02T12:25:06.234Z,968.9
2016-08-02T12:26:06.208Z,968.93
2016-08-02T12:27:06.186Z,968.92
2016-08-02T12:28:06.165Z,968.92
2016-08-02T12:29:06.141Z,968.92
2016-08-02T12:30:06.131Z,968.89
2016-08-02T12:31:06.096Z,968.94
2016-08-02T12:32:06.073Z,968.87
2016-08-02T12:33:06.049Z,968.85
2016-08-02T12:34:06.028Z,968.87
2016-08-02T12:35:06.005Z,968.89
2016-08-02T12:36:05.980Z,968.91
2016-08-02T12:37:05.960Z,968.87
2016-08-02T12:38:05.933Z,968.83